Time;durP1;ratioP1;P1;durP2;ratioP2;P2;SDS_P1;SDS_P2;PMS_P1;PMS_P2;Temp;Humidity;BMP_temperature;BMP_pressure;BME280_temperature;BME280_humidity;BME280_pressure;Samples;Min_cycle;Max_cycle;Signal;HPM_P1;HPM_P2
2023/03/28 00:00:33;;;;;;;0.40;0.40;;;15.70;73.60;;;;;;5053367;28;20071;-74
2023/03/28 00:02:59;;;;;;;0.50;0.50;;;15.70;73.60;;;;;;5053926;28;20029;-74
2023/03/28 00:05:25;;;;;;;0.50;0.50;;;15.70;73.60;;;;;;5055172;28;20017;-74
2023/03/28 00:07:51;;;;;;;0.52;0.50;;;15.70;73.50;;;;;;5054014;28;20021;-74
2023/03/28 00:10:17;;;;;;;0.50;0.50;;;15.70;73.50;;;;;;5053786;28;20029;-74
2023/03/28 00:12:42;;;;;;;0.55;0.50;;;15.70;73.50;;;;;;5055151;28;20358;-74
2023/03/28 00:15:09;;;;;;;0.40;0.38;;;15.70;73.50;;;;;;5053613;28;20060;-74
2023/03/28 00:17:34;;;;;;;0.45;0.45;;;15.70;73.50;;;;;;5053846;28;20040;-74
2023/03/28 00:20:03;;;;;;;0.50;0.50;;;15.70;73.60;;;;;;5053954;28;20025;-74
2023/03/28 00:22:30;;;;;;;0.85;0.60;;;15.70;73.60;;;;;;5053694;28;20014;-74
2023/03/28 00:24:57;;;;;;;0.40;0.40;;;15.70;73.60;;;;;;5054733;28;20020;-74
2023/03/28 00:27:24;;;;;;;0.65;0.50;;;15.70;73.60;;;;;;5053463;28;20170;-74
2023/03/28 00:29:49;;;;;;;0.38;0.38;;;15.70;73.60;;;;;;5053715;28;20021;-74
2023/03/28 00:32:15;;;;;;;0.50;0.35;;;15.70;73.60;;;;;;5053662;28;20032;-74
2023/03/28 00:34:41;;;;;;;0.40;0.40;;;15.70;73.60;;;;;;5036852;28;20025;-74
2023/03/28 00:37:09;;;;;;;0.50;0.50;;;15.70;73.60;;;;;;5053345;28;20079;-74
2023/03/28 00:39:35;;;;;;;0.50;0.50;;;15.70;73.60;;;;;;5053150;28;20025;-75
2023/03/28 00:42:02;;;;;;;0.40;0.40;;;15.70;73.70;;;;;;5054473;28;20079;-74
2023/03/28 00:44:47;;;;;;;0.40;0.40;;;15.70;73.60;;;;;;5053420;28;20017;-74
2023/03/28 00:47:25;;;;;;;0.50;0.50;;;15.70;73.60;;;;;;5054386;28;20021;-74
2023/03/28 00:50:13;;;;;;;1.17;0.50;;;15.70;73.60;;;;;;5053216;28;20047;-74
2023/03/28 00:53:03;;;;;;;0.40;0.40;;;15.70;73.60;;;;;;5081189;28;20056;-74
2023/03/28 00:56:01;;;;;;;0.40;0.40;;;15.70;73.60;;;;;;5054319;28;20389;-74
2023/03/28 00:58:29;;;;;;;0.50;0.50;;;15.70;73.60;;;;;;5062204;28;20062;-74
2023/03/28 01:00:55;;;;;;;0.85;0.40;;;15.70;73.70;;;;;;5069444;28;20040;-74
2023/03/28 01:03:26;;;;;;;0.60;0.50;;;15.70;73.60;;;;;;5069477;28;20025;-74
2023/03/28 01:05:51;;;;;;;0.50;0.50;;;15.70;73.60;;;;;;5068913;28;20029;-74
2023/03/28 01:08:21;;;;;;;0.55;0.55;;;15.70;73.70;;;;;;5086223;28;20386;-74
2023/03/28 01:10:47;;;;;;;0.50;0.50;;;15.70;73.60;;;;;;5085831;28;20108;-74
2023/03/28 01:13:15;;;;;;;0.47;0.40;;;15.70;73.60;;;;;;5085245;28;20108;-74
2023/03/28 01:15:41;;;;;;;0.52;0.50;;;15.70;73.60;;;;;;5049152;28;20025;-74
2023/03/28 01:18:10;;;;;;;0.70;0.40;;;15.70;73.60;;;;;;5049295;28;20382;-74
2023/03/28 01:20:54;;;;;;;0.30;0.30;;;15.70;73.60;;;;;;5064961;28;20022;-74
2023/03/28 01:23:19;;;;;;;1.13;0.60;;;15.70;73.60;;;;;;5032185;28;20018;-74
2023/03/28 01:26:12;;;;;;;0.45;0.45;;;15.70;73.60;;;;;;5033797;28;20025;-75
2023/03/28 01:29:00;;;;;;;0.50;0.38;;;15.70;73.60;;;;;;5032393;28;20503;-74
2023/03/28 01:31:40;;;;;;;0.40;0.30;;;15.70;73.60;;;;;;5033485;28;20427;-74
2023/03/28 01:34:35;;;;;;;0.40;0.40;;;15.70;73.60;;;;;;5065650;28;20493;-74
2023/03/28 01:37:13;;;;;;;0.43;0.43;;;15.70;73.60;;;;;;5062983;28;20025;-74
2023/03/28 01:39:49;;;;;;;0.45;0.40;;;15.70;73.70;;;;;;5065352;28;20025;-74
2023/03/28 01:42:33;;;;;;;0.40;0.30;;;15.70;73.60;;;;;;5033460;28;20033;-74
2023/03/28 01:45:27;;;;;;;0.50;0.40;;;15.70;73.70;;;;;;5063002;28;20021;-74
2023/03/28 01:48:06;;;;;;;0.55;0.55;;;15.70;73.70;;;;;;5067273;28;20043;-74
2023/03/28 01:50:37;;;;;;;1.50;0.40;;;15.70;73.70;;;;;;5051861;28;20021;-74
2023/03/28 01:53:06;;;;;;;0.73;0.55;;;15.70;73.70;;;;;;5051664;28;20037;-74
2023/03/28 01:55:38;;;;;;;0.40;0.40;;;15.70;73.70;;;;;;5053301;28;20103;-74
2023/03/28 01:58:09;;;;;;;0.43;0.43;;;15.70;73.60;;;;;;5051846;28;20366;-75
2023/03/28 02:00:42;;;;;;;1.25;0.50;;;15.70;73.70;;;;;;5051753;28;20013;-74
2023/03/28 02:03:20;;;;;;;0.40;0.40;;;15.70;73.60;;;;;;5051771;28;20021;-74
2023/03/28 02:05:46;;;;;;;0.40;0.40;;;15.70;73.60;;;;;;5051679;28;20515;-74
2023/03/28 02:08:12;;;;;;;1.17;0.45;;;15.70;73.60;;;;;;5051665;28;20025;-74
2023/03/28 02:10:39;;;;;;;0.65;0.40;;;15.70;73.60;;;;;;5051761;28;20042;-74
2023/03/28 02:13:08;;;;;;;0.40;0.40;;;15.70;73.70;;;;;;5051773;28;20028;-74
2023/03/28 02:15:34;;;;;;;0.60;0.60;;;15.70;73.60;;;;;;5031724;28;20017;-74
2023/03/28 02:18:02;;;;;;;0.20;0.20;;;15.70;73.60;;;;;;5032631;28;20079;-74
2023/03/28 02:20:30;;;;;;;0.47;0.35;;;15.70;73.60;;;;;;4998828;28;20018;-74
2023/03/28 02:23:06;;;;;;;0.40;0.40;;;15.70;73.60;;;;;;5014773;28;20539;-74
2023/03/28 02:25:32;;;;;;;1.48;0.50;;;15.70;73.60;;;;;;5015535;28;20041;-74
2023/03/28 02:28:04;;;;;;;0.50;0.50;;;15.70;73.60;;;;;;5015128;28;20509;-74
2023/03/28 02:30:30;;;;;;;0.43;0.40;;;15.70;73.60;;;;;;5015473;28;20022;-74
2023/03/28 02:33:08;;;;;;;0.40;0.40;;;15.70;73.60;;;;;;5031405;28;20036;-74
2023/03/28 02:36:17;;;;;;;0.40;0.40;;;15.70;73.60;;;;;;5031270;28;20043;-74
2023/03/28 02:39:04;;;;;;;0.40;0.40;;;15.60;73.50;;;;;;4952202;29;20511;-74
2023/03/28 02:42:05;;;;;;;0.40;0.40;;;15.60;73.60;;;;;;4938907;29;20041;-74
2023/03/28 02:44:52;;;;;;;0.40;0.40;;;15.60;73.50;;;;;;4952284;29;20055;-74
2023/03/28 02:47:26;;;;;;;0.98;0.40;;;15.70;73.60;;;;;;4952297;29;20031;-74
2023/03/28 02:50:02;;;;;;;0.40;0.40;;;15.60;73.60;;;;;;4970097;28;20043;-74
2023/03/28 02:52:57;;;;;;;0.73;0.45;;;15.60;73.60;;;;;;4939498;28;20573;-74
2023/03/28 02:55:55;;;;;;;0.63;0.40;;;15.60;73.60;;;;;;4957073;28;20125;-74
2023/03/28 02:58:28;;;;;;;0.32;0.32;;;15.60;73.60;;;;;;4957540;28;20147;-74
2023/03/28 03:00:54;;;;;;;0.40;0.40;;;15.60;73.60;;;;;;4955650;28;20124;-74
2023/03/28 03:03:20;;;;;;;0.30;0.30;;;15.60;73.60;;;;;;4954885;28;20038;-74
2023/03/28 03:05:46;;;;;;;0.40;0.40;;;15.60;73.60;;;;;;4955457;28;20035;-74
2023/03/28 03:08:12;;;;;;;0.47;0.38;;;15.60;73.60;;;;;;4955363;28;20130;-74
2023/03/28 03:10:38;;;;;;;0.40;0.40;;;15.60;73.60;;;;;;4955373;28;20058;-74
2023/03/28 03:13:04;;;;;;;0.40;0.40;;;15.60;73.50;;;;;;4971495;28;20069;-74
2023/03/28 03:15:29;;;;;;;0.40;0.40;;;15.60;73.50;;;;;;4995475;28;20065;-74
2023/03/28 03:17:59;;;;;;;0.43;0.40;;;15.60;73.50;;;;;;5030675;28;20029;-74
2023/03/28 03:20:25;;;;;;;0.73;0.40;;;15.60;73.50;;;;;;5032180;28;20030;-74
2023/03/28 03:22:53;;;;;;;0.35;0.35;;;15.60;73.50;;;;;;5014746;28;20068;-74
2023/03/28 03:25:19;;;;;;;0.80;0.40;;;15.60;73.50;;;;;;5014535;28;20071;-74
2023/03/28 03:27:44;;;;;;;0.57;0.57;;;15.60;74.60;;;;;;5031945;28;20444;-74
2023/03/28 03:30:11;;;;;;;0.20;0.20;;;15.60;73.50;;;;;;5032079;28;20071;-74
2023/03/28 03:32:38;;;;;;;0.47;0.40;;;15.60;73.60;;;;;;5031745;28;20018;-74
2023/03/28 03:35:04;;;;;;;0.30;0.30;;;15.60;73.50;;;;;;5018590;28;20028;-74
2023/03/28 03:37:30;;;;;;;0.40;0.40;;;15.60;73.50;;;;;;5036022;28;20099;-74
2023/03/28 03:39:55;;;;;;;0.30;0.30;;;15.60;73.50;;;;;;5034512;28;20494;-74
2023/03/28 03:42:21;;;;;;;0.47;0.30;;;15.60;73.50;;;;;;5035668;28;20470;-74
2023/03/28 03:44:47;;;;;;;0.30;0.30;;;15.60;73.50;;;;;;5018375;28;20021;-74
2023/03/28 03:47:12;;;;;;;0.35;0.35;;;15.60;73.50;;;;;;5034334;28;20101;-74
2023/03/28 03:49:38;;;;;;;0.50;0.40;;;15.60;73.50;;;;;;5050882;28;20029;-74
2023/03/28 03:52:04;;;;;;;0.35;0.30;;;15.60;73.50;;;;;;5055438;28;20524;-74
2023/03/28 03:54:30;;;;;;;0.32;0.30;;;15.60;73.50;;;;;;5054140;28;20040;-74
2023/03/28 03:56:55;;;;;;;0.73;0.40;;;15.60;73.50;;;;;;5054238;28;20025;-75
2023/03/28 03:59:21;;;;;;;0.40;0.40;;;15.60;73.50;;;;;;5055342;28;20017;-74
2023/03/28 04:01:47;;;;;;;0.30;0.30;;;15.60;73.50;;;;;;5054042;28;20025;-74
2023/03/28 04:04:12;;;;;;;0.40;0.40;;;15.60;73.50;;;;;;5055219;28;20029;-75
2023/03/28 04:06:38;;;;;;;0.43;0.40;;;15.60;73.50;;;;;;5055248;28;20025;-74
2023/03/28 04:09:07;;;;;;;0.30;0.20;;;15.60;73.50;;;;;;5055009;28;20102;-74
2023/03/28 04:11:33;;;;;;;0.47;0.47;;;15.60;73.50;;;;;;5054122;28;20021;-74
2023/03/28 04:13:59;;;;;;;0.35;0.30;;;15.60;73.50;;;;;;5046609;28;20021;-74
2023/03/28 04:16:25;;;;;;;0.32;0.30;;;15.60;73.50;;;;;;5066893;28;20041;-74
2023/03/28 04:18:51;;;;;;;0.35;0.35;;;15.60;73.50;;;;;;5035172;28;20029;-74
2023/03/28 04:21:24;;;;;;;0.43;0.30;;;15.60;73.50;;;;;;5066991;28;20081;-74
2023/03/28 04:23:50;;;;;;;0.30;0.30;;;15.60;73.60;;;;;;5049981;28;20033;-74
2023/03/28 04:26:19;;;;;;;0.40;0.30;;;15.60;73.50;;;;;;5067132;28;20022;-74
2023/03/28 04:28:46;;;;;;;0.60;0.30;;;15.60;73.50;;;;;;5066287;28;20032;-74
2023/03/28 04:31:12;;;;;;;0.30;0.30;;;15.60;73.50;;;;;;5066351;28;20026;-74
2023/03/28 04:33:38;;;;;;;0.28;0.20;;;15.60;73.50;;;;;;5066996;28;20084;-75
2023/03/28 04:36:06;;;;;;;0.30;0.30;;;15.60;73.50;;;;;;5034902;28;20025;-74
2023/03/28 04:38:35;;;;;;;0.43;0.30;;;15.60;73.50;;;;;;5049671;28;20036;-74
2023/03/28 04:41:03;;;;;;;0.50;0.50;;;15.60;73.50;;;;;;5065835;28;20052;-74
2023/03/28 04:43:29;;;;;;;0.35;0.30;;;15.60;73.50;;;;;;5066208;28;20109;-74
2023/03/28 04:45:55;;;;;;;0.30;0.30;;;15.60;73.50;;;;;;5065981;28;20100;-74
2023/03/28 04:48:24;;;;;;;0.47;0.47;;;15.60;73.60;;;;;;5039021;28;20116;-75
2023/03/28 04:50:50;;;;;;;0.30;0.30;;;15.60;73.50;;;;;;5086565;28;20108;-75
2023/03/28 04:53:16;;;;;;;0.30;0.30;;;15.60;73.50;;;;;;5069618;28;20057;-74
2023/03/28 04:55:43;;;;;;;0.57;0.30;;;15.60;73.50;;;;;;5086507;28;20071;-74
2023/03/28 04:58:08;;;;;;;0.43;0.30;;;15.60;73.50;;;;;;5054600;28;20054;-74
2023/03/28 05:00:35;;;;;;;0.57;0.40;;;15.60;73.50;;;;;;5054054;28;20362;-74
2023/03/28 05:03:03;;;;;;;0.40;0.35;;;15.60;73.50;;;;;;5086254;28;20550;-74
2023/03/28 05:05:30;;;;;;;0.45;0.35;;;15.60;73.50;;;;;;5069299;28;20071;-74
2023/03/28 05:07:59;;;;;;;0.22;0.22;;;15.60;73.50;;;;;;5086376;28;20104;-75
2023/03/28 05:10:25;;;;;;;0.47;0.40;;;15.60;73.50;;;;;;5086292;28;20032;-74
2023/03/28 05:12:50;;;;;;;0.47;0.30;;;15.60;73.50;;;;;;5069512;28;20036;-74
2023/03/28 05:15:16;;;;;;;0.60;0.30;;;15.60;73.60;;;;;;5053583;28;20497;-74
2023/03/28 05:17:42;;;;;;;0.50;0.25;;;15.60;73.60;;;;;;5052508;28;20032;-74
2023/03/28 05:20:09;;;;;;;0.40;0.40;;;15.60;73.50;;;;;;5053984;28;20020;-74
2023/03/28 05:22:35;;;;;;;0.30;0.30;;;15.60;73.50;;;;;;5054042;28;20175;-74
2023/03/28 05:25:02;;;;;;;0.20;0.20;;;15.60;73.60;;;;;;5052558;28;20525;-74
2023/03/28 05:27:27;;;;;;;0.20;0.20;;;15.60;73.50;;;;;;5052558;28;20492;-74
2023/03/28 05:29:53;;;;;;;0.30;0.30;;;15.60;73.50;;;;;;5053296;28;20021;-74
2023/03/28 05:32:19;;;;;;;0.80;0.20;;;15.60;73.50;;;;;;5054058;28;20033;-74
2023/03/28 05:34:44;;;;;;;0.30;0.30;;;15.60;73.50;;;;;;5053595;28;20481;-74
2023/03/28 05:37:10;;;;;;;0.30;0.20;;;15.60;73.50;;;;;;5053485;28;20034;-74
2023/03/28 05:39:36;;;;;;;0.28;0.28;;;15.60;73.50;;;;;;5052265;28;20025;-74
2023/03/28 05:42:01;;;;;;;0.28;0.20;;;15.60;73.50;;;;;;5051971;28;20559;-74
2023/03/28 05:44:27;;;;;;;0.32;0.30;;;15.60;73.50;;;;;;5053132;28;20029;-74
2023/03/28 05:46:52;;;;;;;0.85;0.30;;;15.60;73.50;;;;;;5053360;28;20035;-74
2023/03/28 05:49:18;;;;;;;0.50;0.20;;;15.60;73.50;;;;;;5053062;28;20408;-74
2023/03/28 05:51:44;;;;;;;0.38;0.38;;;15.60;73.50;;;;;;5068579;28;20691;-74
2023/03/28 05:54:10;;;;;;;0.20;0.20;;;15.60;73.50;;;;;;5085355;28;20112;-74
2023/03/28 05:56:36;;;;;;;0.80;0.30;;;15.60;73.50;;;;;;5067801;28;20039;-74
2023/03/28 05:59:02;;;;;;;0.30;0.30;;;15.60;73.50;;;;;;5052663;28;20021;-74
2023/03/28 06:01:28;;;;;;;0.30;0.30;;;15.60;73.50;;;;;;5053051;28;20028;-74
2023/03/28 06:03:54;;;;;;;0.20;0.20;;;15.60;73.50;;;;;;5053181;28;20017;-74
2023/03/28 06:06:20;;;;;;;0.40;0.22;;;15.60;73.50;;;;;;5068526;28;20027;-75
2023/03/28 06:08:46;;;;;;;1.40;0.50;;;15.60;73.50;;;;;;5051774;28;20527;-74
2023/03/28 06:11:12;;;;;;;0.43;0.30;;;15.60;73.50;;;;;;5051751;28;20029;-74
2023/03/28 06:13:37;;;;;;;0.20;0.20;;;15.60;73.50;;;;;;5068180;28;20017;-74
2023/03/28 06:16:03;;;;;;;1.75;0.40;;;15.50;73.50;;;;;;5052829;28;20044;-74
2023/03/28 06:18:29;;;;;;;0.40;0.40;;;15.60;73.50;;;;;;5051353;28;20036;-74
2023/03/28 06:20:55;;;;;;;0.38;0.25;;;15.60;73.50;;;;;;5052916;28;20024;-74
2023/03/28 06:23:21;;;;;;;0.45;0.45;;;15.50;73.40;;;;;;5051454;28;20032;-74
2023/03/28 06:25:47;;;;;;;0.47;0.47;;;15.50;73.40;;;;;;5052571;28;20405;-74
2023/03/28 06:28:12;;;;;;;0.50;0.30;;;15.60;73.50;;;;;;5051293;28;20031;-75
2023/03/28 06:30:41;;;;;;;0.63;0.30;;;15.50;73.40;;;;;;5052510;28;20035;-74
2023/03/28 06:33:06;;;;;;;0.40;0.30;;;15.50;73.40;;;;;;5051464;28;20017;-74
2023/03/28 06:35:32;;;;;;;0.20;0.20;;;15.60;73.50;;;;;;5051382;28;20079;-74
2023/03/28 06:37:58;;;;;;;0.22;0.20;;;15.50;73.40;;;;;;5051181;28;20420;-74
2023/03/28 06:40:25;;;;;;;0.30;0.30;;;15.50;73.40;;;;;;5052286;28;20021;-74
2023/03/28 06:42:51;;;;;;;1.05;0.50;;;15.50;73.50;;;;;;5051298;28;20043;-74
2023/03/28 06:45:16;;;;;;;0.30;0.30;;;15.50;73.40;;;;;;5051327;28;20025;-74
2023/03/28 06:47:44;;;;;;;0.20;0.20;;;15.50;73.40;;;;;;5052115;28;20508;-74
2023/03/28 06:50:10;;;;;;;1.05;0.30;;;15.50;73.40;;;;;;5052501;28;20546;-74
2023/03/28 06:52:35;;;;;;;0.65;0.45;;;15.60;73.50;;;;;;5050964;28;20048;-74
2023/03/28 06:55:01;;;;;;;0.68;0.47;;;15.50;73.40;;;;;;5050807;28;20035;-74
2023/03/28 06:57:27;;;;;;;0.60;0.30;;;15.50;73.40;;;;;;5051116;28;20071;-74
2023/03/28 06:59:52;;;;;;;0.50;0.20;;;15.50;73.40;;;;;;5052233;28;20098;-74
2023/03/28 07:02:18;;;;;;;0.45;0.43;;;15.50;73.40;;;;;;5051117;28;20096;-74
2023/03/28 07:04:43;;;;;;;0.40;0.30;;;15.60;73.50;;;;;;5052188;28;20028;-74
2023/03/28 07:07:09;;;;;;;0.30;0.30;;;15.50;73.40;;;;;;5051268;28;20021;-74
2023/03/28 07:09:35;;;;;;;0.30;0.30;;;15.50;73.40;;;;;;5055467;28;20037;-74
2023/03/28 07:12:01;;;;;;;0.93;0.30;;;15.50;73.40;;;;;;5055016;28;20017;-74
2023/03/28 07:14:27;;;;;;;0.90;0.40;;;15.50;73.50;;;;;;5044050;28;20021;-74
2023/03/28 07:16:53;;;;;;;0.30;0.30;;;15.50;73.50;;;;;;5036256;28;20159;-74
2023/03/28 07:19:19;;;;;;;0.35;0.30;;;15.50;73.40;;;;;;5036140;28;20041;-74
2023/03/28 07:21:45;;;;;;;0.40;0.40;;;15.50;73.40;;;;;;5067987;28;20209;-74
2023/03/28 07:24:11;;;;;;;0.30;0.25;;;15.50;73.40;;;;;;5035982;28;20433;-74
2023/03/28 07:26:36;;;;;;;0.75;0.40;;;15.50;73.40;;;;;;5035948;28;20378;-74
2023/03/28 07:29:02;;;;;;;0.90;0.40;;;15.50;73.40;;;;;;5068184;28;20060;-74
2023/03/28 07:31:28;;;;;;;0.32;0.30;;;15.50;74.50;;;;;;5051139;28;20472;-74
2023/03/28 07:33:55;;;;;;;0.68;0.35;;;15.50;73.40;;;;;;5067935;28;20112;-74
2023/03/28 07:36:21;;;;;;;0.40;0.28;;;15.50;73.40;;;;;;5051079;28;20393;-74
2023/03/28 07:38:46;;;;;;;1.15;0.30;;;15.50;73.40;;;;;;5035687;28;20034;-74
2023/03/28 07:41:13;;;;;;;2.05;0.60;;;15.50;73.40;;;;;;5050862;28;20025;-74
2023/03/28 07:43:38;;;;;;;1.25;0.50;;;15.50;73.40;;;;;;5067636;28;20029;-74
2023/03/28 07:46:08;;;;;;;0.40;0.40;;;15.50;73.40;;;;;;5067792;28;20022;-74
2023/03/28 07:48:34;;;;;;;0.73;0.30;;;15.50;73.40;;;;;;5075466;28;20028;-74
2023/03/28 07:51:00;;;;;;;0.20;0.20;;;15.50;74.40;;;;;;5087588;28;20024;-74
2023/03/28 07:53:26;;;;;;;0.47;0.30;;;15.50;73.40;;;;;;5070571;28;20060;-74
2023/03/28 07:55:53;;;;;;;1.02;0.30;;;15.50;73.40;;;;;;5054069;28;20032;-74
2023/03/28 07:58:19;;;;;;;0.60;0.30;;;15.50;73.40;;;;;;5087560;28;20025;-75
2023/03/28 08:00:44;;;;;;;0.20;0.20;;;15.50;73.40;;;;;;5070756;28;20039;-75
2023/03/28 08:03:11;;;;;;;0.63;0.40;;;15.50;73.40;;;;;;5070737;28;20032;-75
2023/03/28 08:05:38;;;;;;;0.45;0.15;;;15.50;73.40;;;;;;5087329;28;20013;-74
2023/03/28 08:08:04;;;;;;;0.38;0.20;;;15.50;73.30;;;;;;5053802;28;20386;-74
2023/03/28 08:10:30;;;;;;;0.28;0.22;;;15.50;73.40;;;;;;5055268;28;20067;-74
2023/03/28 08:12:56;;;;;;;0.57;0.40;;;15.50;73.40;;;;;;5070516;28;20032;-74
2023/03/28 08:15:22;;;;;;;0.30;0.30;;;15.50;73.40;;;;;;5070468;28;20087;-74
2023/03/28 08:17:47;;;;;;;1.25;0.25;;;15.50;73.40;;;;;;5053624;28;20025;-74
2023/03/28 08:20:13;;;;;;;0.43;0.30;;;15.50;73.40;;;;;;5052971;28;20026;-74
2023/03/28 08:22:39;;;;;;;0.30;0.30;;;15.50;73.40;;;;;;5053511;28;20047;-74
2023/03/28 08:25:06;;;;;;;0.22;0.20;;;15.50;73.40;;;;;;5053736;28;20021;-74
2023/03/28 08:27:32;;;;;;;0.93;0.30;;;15.50;73.40;;;;;;5053709;28;20052;-74
2023/03/28 08:29:57;;;;;;;0.20;0.20;;;15.50;73.40;;;;;;5054795;28;20388;-74
2023/03/28 08:32:23;;;;;;;0.70;0.30;;;15.50;73.40;;;;;;5053657;28;20040;-74
2023/03/28 08:34:49;;;;;;;0.50;0.30;;;15.50;73.40;;;;;;5053536;28;20025;-74
2023/03/28 08:37:14;;;;;;;0.57;0.40;;;15.50;73.40;;;;;;5054409;28;20033;-74
2023/03/28 08:39:41;;;;;;;0.30;0.30;;;15.50;73.40;;;;;;5053508;28;20025;-74
2023/03/28 08:42:08;;;;;;;0.30;0.30;;;15.50;73.40;;;;;;5053359;28;20396;-74
2023/03/28 08:44:58;;;;;;;0.30;0.20;;;15.50;73.40;;;;;;5054561;28;20031;-74
2023/03/28 08:47:31;;;;;;;1.38;0.20;;;15.50;73.30;;;;;;5053236;28;20025;-74
2023/03/28 08:50:00;;;;;;;;;;;15.50;73.40;;;;;;5053505;28;20099;-74
2023/03/28 08:52:25;;;;;;;0.55;0.30;;;15.50;73.30;;;;;;5086452;28;19952;-74
2023/03/28 08:55:16;;;;;;;0.90;0.30;;;15.50;73.40;;;;;;5053186;28;20086;-74
2023/03/28 08:57:41;;;;;;;0.73;0.40;;;15.50;73.40;;;;;;5053055;28;20032;-74
2023/03/28 09:00:31;;;;;;;0.25;0.20;;;15.40;73.30;;;;;;5053183;28;20029;-74
2023/03/28 09:02:57;;;;;;;1.17;0.40;;;15.40;73.40;;;;;;5052984;28;20017;-74
2023/03/28 09:05:37;;;;;;;0.30;0.30;;;15.50;73.40;;;;;;5053053;28;20096;-74
2023/03/28 09:08:16;;;;;;;0.73;0.43;;;15.40;73.30;;;;;;5052839;28;20397;-74
2023/03/28 09:10:55;;;;;;;0.55;0.20;;;15.50;73.30;;;;;;5053063;28;20029;-74
2023/03/28 09:13:24;;;;;;;0.30;0.30;;;15.40;73.30;;;;;;5050911;28;20031;-74
2023/03/28 09:16:08;;;;;;;0.82;0.50;;;15.50;73.40;;;;;;5034052;28;20029;-74
2023/03/28 09:18:45;;;;;;;0.20;0.20;;;15.40;73.30;;;;;;5033723;28;20080;-74
2023/03/28 09:21:32;;;;;;;1.77;0.30;;;15.40;73.30;;;;;;5033579;28;20100;-74
2023/03/28 09:24:17;;;;;;;0.20;0.20;;;15.50;73.30;;;;;;5049067;28;20071;-74
2023/03/28 09:26:51;;;;;;;0.55;0.40;;;15.40;73.20;;;;;;5033700;28;20025;-74
2023/03/28 09:29:18;;;;;;;0.52;0.40;;;15.50;73.30;;;;;;5063941;28;20501;-74
2023/03/28 09:31:48;;;;;;;0.43;0.30;;;15.40;73.20;;;;;;5032005;28;20030;-74
2023/03/28 09:34:29;;;;;;;0.52;0.30;;;15.50;73.30;;;;;;5048849;28;20021;-74
2023/03/28 09:36:58;;;;;;;0.30;0.20;;;15.40;73.20;;;;;;5033820;28;20109;-74
2023/03/28 09:39:35;;;;;;;1.05;0.40;;;15.40;73.20;;;;;;5065581;28;20025;-74
2023/03/28 09:42:01;;;;;;;0.40;0.30;;;15.50;73.20;;;;;;5065038;28;20026;-74
2023/03/28 09:44:30;;;;;;;0.82;0.30;;;15.40;73.20;;;;;;5033565;28;20088;-74
2023/03/28 09:46:56;;;;;;;0.30;0.30;;;15.40;73.20;;;;;;5064855;28;20071;-75
2023/03/28 09:49:23;;;;;;;0.20;0.20;;;15.40;73.20;;;;;;5062793;28;20562;-74
2023/03/28 09:51:53;;;;;;;1.45;0.20;;;15.40;73.20;;;;;;5068428;28;20116;-74
2023/03/28 09:54:23;;;;;;;1.92;0.30;;;15.50;73.20;;;;;;5068124;28;20075;-74
2023/03/28 09:56:49;;;;;;;0.60;0.30;;;15.50;73.20;;;;;;5068102;28;20037;-74
2023/03/28 09:59:24;;;;;;;1.27;0.40;;;15.40;73.20;;;;;;5068475;28;20017;-74
2023/03/28 10:01:51;;;;;;;0.52;0.20;;;15.40;73.20;;;;;;5085194;28;20480;-74
2023/03/28 10:04:19;;;;;;;0.32;0.30;;;15.40;73.20;;;;;;5085050;28;20043;-74
2023/03/28 10:06:45;;;;;;;0.70;0.40;;;15.40;74.20;;;;;;5068075;28;20021;-74
2023/03/28 10:09:20;;;;;;;0.52;0.32;;;15.40;73.10;;;;;;5085175;28;20025;-74
2023/03/28 10:11:59;;;;;;;1.10;0.40;;;15.40;73.20;;;;;;5052768;28;20063;-74
2023/03/28 10:14:35;;;;;;;0.63;0.40;;;15.40;73.10;;;;;;5067308;28;20023;-75
2023/03/28 10:17:34;;;;;;;0.30;0.28;;;15.40;73.10;;;;;;5052915;28;20028;-74
2023/03/28 10:20:06;;;;;;;0.43;0.30;;;15.40;73.10;;;;;;5033672;28;20045;-74
2023/03/28 10:22:36;;;;;;;0.32;0.30;;;15.40;73.10;;;;;;5051427;28;20035;-74
2023/03/28 10:25:06;;;;;;;0.70;0.40;;;15.40;73.10;;;;;;5033959;28;20468;-74
2023/03/28 10:27:32;;;;;;;2.83;0.40;;;15.40;73.10;;;;;;5034089;28;20017;-74
2023/03/28 10:30:09;;;;;;;0.65;0.40;;;15.40;73.10;;;;;;5033879;28;20643;-74
2023/03/28 10:32:35;;;;;;;1.38;0.47;;;15.40;73.10;;;;;;5051647;28;20025;-74
2023/03/28 10:35:05;;;;;;;1.63;0.40;;;15.40;73.10;;;;;;5033898;28;20029;-74
2023/03/28 10:37:32;;;;;;;0.43;0.30;;;15.40;73.10;;;;;;5050976;28;20025;-74
2023/03/28 10:39:59;;;;;;;0.70;0.40;;;15.40;73.10;;;;;;5050409;28;20021;-74
2023/03/28 10:42:24;;;;;;;0.45;0.30;;;15.40;73.10;;;;;;5049872;28;20095;-74
2023/03/28 10:45:00;;;;;;;0.57;0.43;;;15.40;73.10;;;;;;5050138;28;20485;-74
2023/03/28 10:47:26;;;;;;;0.75;0.30;;;15.40;73.10;;;;;;5033575;28;20075;-74
2023/03/28 10:49:52;;;;;;;1.10;0.40;;;15.40;73.10;;;;;;5033499;28;20043;-74
2023/03/28 10:52:47;;;;;;;1.58;0.70;;;15.40;73.10;;;;;;5033766;28;20040;-74
2023/03/28 10:55:16;;;;;;;1.92;0.32;;;15.40;73.20;;;;;;5050842;28;20021;-74
2023/03/28 10:57:42;;;;;;;1.27;0.40;;;15.40;73.10;;;;;;5051005;28;20036;-74
2023/03/28 11:00:20;;;;;;;0.65;0.20;;;15.40;73.20;;;;;;5052258;28;20021;-74
2023/03/28 11:03:09;;;;;;;0.82;0.40;;;15.40;73.10;;;;;;5050786;28;20025;-74
2023/03/28 11:06:11;;;;;;;0.88;0.30;;;15.40;73.10;;;;;;5051396;28;20388;-74
2023/03/28 11:08:50;;;;;;;0.40;0.40;;;15.40;73.00;;;;;;5040270;28;20041;-74
2023/03/28 11:11:43;;;;;;;1.33;0.35;;;15.40;73.10;;;;;;5051121;28;20102;-74
2023/03/28 11:14:26;;;;;;;0.73;0.38;;;15.40;73.00;;;;;;5043739;28;20099;-74
2023/03/28 11:17:18;;;;;;;0.38;0.30;;;15.40;73.00;;;;;;5032062;28;20021;-74
2023/03/28 11:19:44;;;;;;;0.77;0.30;;;15.40;73.10;;;;;;5064305;28;20100;-74
2023/03/28 11:22:09;;;;;;;1.23;0.40;;;15.40;73.00;;;;;;5032203;28;20041;-74
2023/03/28 11:24:57;;;;;;;0.43;0.32;;;15.40;73.10;;;;;;5032126;28;20022;-74
2023/03/28 11:27:35;;;;;;;0.30;0.30;;;15.40;74.00;;;;;;5032295;28;20017;-74
2023/03/28 11:30:21;;;;;;;0.80;0.50;;;15.40;73.00;;;;;;5032249;28;20120;-74
2023/03/28 11:33:00;;;;;;;1.58;0.40;;;15.40;73.00;;;;;;5045768;28;20497;-74
2023/03/28 11:35:36;;;;;;;0.68;0.45;;;15.40;73.00;;;;;;5064108;28;20427;-74
2023/03/28 11:38:21;;;;;;;0.40;0.38;;;15.40;73.00;;;;;;5047256;28;20079;-74
2023/03/28 11:41:09;;;;;;;0.70;0.50;;;15.40;73.00;;;;;;5063348;28;20061;-74
2023/03/28 11:43:38;;;;;;;1.55;0.32;;;15.40;73.00;;;;;;5063997;28;20022;-74
2023/03/28 11:46:10;;;;;;;0.38;0.30;;;15.40;73.00;;;;;;5063799;28;20095;-74
2023/03/28 11:48:56;;;;;;;0.60;0.30;;;15.40;72.90;;;;;;5038161;28;20025;-74
2023/03/28 11:51:27;;;;;;;0.30;0.30;;;15.40;72.90;;;;;;5051474;28;20033;-74
2023/03/28 11:54:09;;;;;;;0.55;0.30;;;15.40;72.90;;;;;;5066406;28;20519;-74
2023/03/28 11:57:23;;;;;;;0.40;0.30;;;15.40;72.90;;;;;;5069016;28;20071;-74
2023/03/28 12:00:04;;;;;;;1.17;0.70;;;15.40;72.90;;;;;;5052878;28;20041;-74
2023/03/28 12:02:29;;;;;;;0.45;0.40;;;15.40;72.90;;;;;;5053272;28;20013;-74
2023/03/28 12:05:38;;;;;;;0.50;0.40;;;15.40;72.90;;;;;;5053304;28;20131;-74
2023/03/28 12:08:12;;;;;;;0.30;0.30;;;15.40;72.90;;;;;;4958256;28;20042;-74
2023/03/28 12:10:38;;;;;;;2.40;0.40;;;15.40;72.90;;;;;;4958396;28;20042;-74
2023/03/28 12:13:11;;;;;;;0.98;0.35;;;15.40;72.90;;;;;;4958185;28;20107;-74
2023/03/28 12:15:52;;;;;;;1.05;0.40;;;15.40;72.80;;;;;;4954899;29;20061;-74
2023/03/28 12:18:21;;;;;;;2.00;0.52;;;15.40;72.80;;;;;;4954883;29;20512;-74
2023/03/28 12:21:06;;;;;;;0.98;0.65;;;15.40;72.90;;;;;;4954989;29;20142;-74
2023/03/28 12:23:45;;;;;;;1.10;0.50;;;15.40;72.90;;;;;;4954827;29;20035;-74
2023/03/28 12:26:24;;;;;;;2.45;0.50;;;15.40;72.80;;;;;;4955006;29;20051;-74
2023/03/28 12:28:54;;;;;;;1.20;0.35;;;15.40;72.90;;;;;;4954671;29;20062;-74
2023/03/28 12:31:25;;;;;;;0.73;0.45;;;15.40;72.90;;;;;;4954612;28;20039;-74
2023/03/28 12:33:56;;;;;;;1.58;0.57;;;15.40;72.80;;;;;;4954559;29;20035;-74
2023/03/28 12:36:27;;;;;;;0.95;0.40;;;15.40;72.90;;;;;;4957785;28;20039;-74
2023/03/28 12:39:34;;;;;;;0.73;0.32;;;15.40;72.90;;;;;;4973915;28;20065;-74
2023/03/28 12:42:04;;;;;;;0.50;0.40;;;15.40;72.80;;;;;;4954315;29;20023;-74
2023/03/28 12:44:45;;;;;;;1.95;0.50;;;15.40;72.90;;;;;;4991877;28;20030;-74
2023/03/28 12:47:22;;;;;;;1.38;0.52;;;15.40;72.80;;;;;;4997543;28;20022;-74
2023/03/28 12:50:03;;;;;;;0.65;0.40;;;15.40;72.80;;;;;;5014416;28;20033;-74
2023/03/28 12:52:31;;;;;;;0.70;0.38;;;15.40;72.80;;;;;;5000275;28;20154;-74
2023/03/28 12:54:58;;;;;;;1.48;0.52;;;15.40;72.80;;;;;;4999445;28;20619;-74
2023/03/28 12:57:39;;;;;;;1.70;0.68;;;15.30;72.70;;;;;;5015548;28;20453;-74
2023/03/28 13:00:05;;;;;;;1.45;0.57;;;15.40;72.80;;;;;;5032303;28;20052;-74
2023/03/28 13:02:58;;;;;;;0.60;0.40;;;15.30;72.70;;;;;;5032072;28;20454;-74
2023/03/28 13:05:28;;;;;;;1.35;0.45;;;15.40;72.80;;;;;;5032145;28;20083;-74
2023/03/28 13:08:18;;;;;;;1.98;0.40;;;15.40;72.80;;;;;;5015172;28;20033;-74